createdAt,value
2019-02-18T00:02:01.366Z,6.50
2019-02-18T00:04:31.474Z,6.50
2019-02-18T00:07:01.421Z,6.50
2019-02-18T00:09:31.269Z,6.50
2019-02-18T00:12:00.951Z,6.60
2019-02-18T00:14:30.572Z,6.60
2019-02-18T00:17:00.280Z,6.60
2019-02-18T00:19:29.889Z,6.60
2019-02-18T00:21:59.817Z,6.60
2019-02-18T00:24:29.450Z,6.60
2019-02-18T00:26:59.122Z,6.60
2019-02-18T00:29:28.754Z,6.60
2019-02-18T00:31:58.440Z,6.60
2019-02-18T00:34:28.076Z,6.60
2019-02-18T00:36:57.962Z,6.60
2019-02-18T00:39:27.784Z,6.60
2019-02-18T00:41:57.406Z,6.60
2019-02-18T00:44:27.862Z,6.60
2019-02-18T00:46:57.613Z,6.60
2019-02-18T00:49:27.439Z,6.60
2019-02-18T00:51:57.057Z,6.60
2019-02-18T00:54:27.145Z,6.60
2019-02-18T00:56:56.781Z,6.60
2019-02-18T00:59:26.403Z,6.60
2019-02-18T01:01:56.688Z,6.60
2019-02-18T01:04:26.870Z,6.60
2019-02-18T01:06:56.955Z,6.60
2019-02-18T01:09:26.938Z,6.60
2019-02-18T01:11:56.606Z,6.60
2019-02-18T01:14:26.269Z,6.60
2019-02-18T01:16:55.893Z,6.60
2019-02-18T01:19:25.524Z,6.60
2019-02-18T01:21:55.416Z,6.60
2019-02-18T01:24:25.045Z,6.60
2019-02-18T01:26:54.737Z,6.60
2019-02-18T01:29:24.361Z,6.50
2019-02-18T01:31:53.968Z,6.50
2019-02-18T01:34:23.985Z,6.50
2019-02-18T01:36:53.665Z,6.50
2019-02-18T01:39:23.518Z,6.40
2019-02-18T01:41:53.143Z,6.40
2019-02-18T01:44:23.059Z,6.40
2019-02-18T01:46:52.729Z,6.40
2019-02-18T01:49:23.286Z,6.40
2019-02-18T01:51:52.888Z,6.40
2019-02-18T01:54:22.797Z,6.30
2019-02-18T01:56:52.770Z,6.30
2019-02-18T01:59:22.425Z,6.30
2019-02-18T02:01:52.428Z,6.20
2019-02-18T02:04:22.368Z,6.20
2019-02-18T02:06:51.994Z,6.20
2019-02-18T02:09:21.613Z,6.20
2019-02-18T02:11:51.522Z,6.20
2019-02-18T02:14:21.414Z,6.20
2019-02-18T02:16:51.101Z,6.20
2019-02-18T02:19:20.721Z,6.10
2019-02-18T02:21:50.678Z,6.10
2019-02-18T02:24:20.301Z,6.10
2019-02-18T02:26:50.017Z,6.10
2019-02-18T02:29:19.643Z,6.00
2019-02-18T02:31:49.305Z,6.00
2019-02-18T02:34:18.917Z,6.00
2019-02-18T02:36:48.536Z,6.00
2019-02-18T02:39:18.155Z,6.00
2019-02-18T02:41:48.118Z,5.90
2019-02-18T02:44:18.161Z,5.80
2019-02-18T02:46:47.811Z,5.80
2019-02-18T02:49:17.507Z,5.80
2019-02-18T02:51:47.738Z,5.70
2019-02-18T02:54:17.397Z,5.70
2019-02-18T02:56:47.024Z,5.60
2019-02-18T02:59:16.732Z,5.50
2019-02-18T03:01:46.650Z,5.50
2019-02-18T03:04:16.299Z,5.40
2019-02-18T03:06:46.282Z,5.40
2019-02-18T03:09:15.900Z,5.30
2019-02-18T03:11:45.601Z,5.20
2019-02-18T03:14:15.218Z,5.20
2019-02-18T03:16:45.174Z,5.20
2019-02-18T03:19:14.893Z,5.10
2019-02-18T03:21:44.842Z,5.00
2019-02-18T03:24:14.725Z,5.00
2019-02-18T03:26:44.350Z,5.00
2019-02-18T03:30:16.669Z,5.00
2019-02-18T03:32:50.578Z,4.90
2019-02-18T03:35:20.444Z,4.90
2019-02-18T03:37:50.079Z,4.90
2019-02-18T03:40:19.688Z,4.90
2019-02-18T03:42:49.313Z,4.90
2019-02-18T03:45:18.933Z,4.90
2019-02-18T03:47:48.790Z,4.80
2019-02-18T03:50:18.761Z,4.80
2019-02-18T03:52:48.382Z,4.80
2019-02-18T03:55:18.016Z,4.80
2019-02-18T03:57:47.644Z,4.80
2019-02-18T04:00:17.497Z,4.80
2019-02-18T04:02:47.286Z,4.80
2019-02-18T04:05:16.905Z,4.80
2019-02-18T04:07:46.534Z,4.80
2019-02-18T04:10:16.190Z,4.70
2019-02-18T04:12:45.814Z,4.70
2019-02-18T04:15:15.553Z,4.70
2019-02-18T04:17:45.480Z,4.70
2019-02-18T04:20:15.100Z,4.60
2019-02-18T04:22:44.801Z,4.60
2019-02-18T04:25:14.411Z,4.50
2019-02-18T04:27:44.019Z,4.50
2019-02-18T04:30:13.876Z,4.50
2019-02-18T04:32:43.606Z,4.50
2019-02-18T04:35:13.277Z,4.40
2019-02-18T04:37:42.902Z,4.40
2019-02-18T04:40:12.508Z,4.50
2019-02-18T04:42:42.653Z,4.50
2019-02-18T04:45:12.721Z,4.40
2019-02-18T04:47:42.346Z,4.40
2019-02-18T04:50:12.025Z,4.40
2019-02-18T04:52:41.645Z,4.50
2019-02-18T04:55:11.409Z,4.50
2019-02-18T04:57:41.067Z,4.50
2019-02-18T05:00:10.874Z,4.50
2019-02-18T05:02:40.498Z,4.50
2019-02-18T05:05:10.300Z,4.60
2019-02-18T05:07:40.029Z,4.60
2019-02-18T05:10:09.796Z,4.60
2019-02-18T05:12:39.491Z,4.60
2019-02-18T05:15:09.502Z,4.50
2019-02-18T05:17:39.626Z,4.50
2019-02-18T05:20:09.509Z,4.40
2019-02-18T05:22:39.133Z,4.40
2019-02-18T05:25:10.106Z,4.40
2019-02-18T05:27:40.696Z,4.40
2019-02-18T05:30:10.476Z,4.40
2019-02-18T05:32:41.084Z,4.40
2019-02-18T05:35:10.705Z,4.40
2019-02-18T05:37:40.322Z,4.40
2019-02-18T05:40:10.335Z,4.40
2019-02-18T05:42:40.256Z,4.40
2019-02-18T05:45:10.400Z,4.40
2019-02-18T05:47:40.080Z,4.40
2019-02-18T05:50:09.841Z,4.40
2019-02-18T05:52:39.451Z,4.40
2019-02-18T05:55:09.157Z,4.30
2019-02-18T05:57:38.779Z,4.30
2019-02-18T06:00:09.730Z,4.30
2019-02-18T06:02:39.333Z,4.30
2019-02-18T06:05:08.959Z,4.30
2019-02-18T06:07:38.692Z,4.30
2019-02-18T06:10:08.886Z,4.30
2019-02-18T06:12:38.648Z,4.30
2019-02-18T06:15:09.040Z,4.30
2019-02-18T06:17:38.993Z,4.30
2019-02-18T06:20:08.729Z,4.30
2019-02-18T06:22:38.849Z,4.40
2019-02-18T06:25:08.806Z,4.40
2019-02-18T06:27:38.714Z,4.40
2019-02-18T06:30:09.082Z,4.40
2019-02-18T06:32:38.688Z,4.40
2019-02-18T06:35:08.476Z,4.40
2019-02-18T06:37:38.396Z,4.40
2019-02-18T06:40:08.570Z,4.40
2019-02-18T06:42:38.187Z,4.40
2019-02-18T06:45:33.377Z,4.30
2019-02-18T06:48:18.996Z,4.20
2019-02-18T06:50:48.662Z,4.20
2019-02-18T06:53:18.312Z,4.20
2019-02-18T06:55:48.019Z,4.10
2019-02-18T06:58:55.043Z,4.10
2019-02-18T07:01:50.468Z,4.00
2019-02-18T07:04:40.280Z,4.00
2019-02-18T07:07:18.774Z,3.90
2019-02-18T07:10:05.893Z,3.90
2019-02-18T07:12:38.725Z,4.00
2019-02-18T07:15:08.652Z,4.00
2019-02-18T07:17:38.323Z,4.00
2019-02-18T07:20:08.228Z,4.20
2019-02-18T07:22:37.845Z,4.30
2019-02-18T07:25:08.768Z,4.30
2019-02-18T07:27:38.672Z,4.30
2019-02-18T07:30:11.262Z,4.40
2019-02-18T07:32:40.917Z,4.40
2019-02-18T07:35:10.813Z,4.40
2019-02-18T07:37:40.425Z,4.50
2019-02-18T07:40:10.503Z,4.50
2019-02-18T07:42:40.151Z,4.50
2019-02-18T07:45:10.063Z,4.50
2019-02-18T07:47:39.694Z,4.60
2019-02-18T07:50:19.911Z,4.70
2019-02-18T07:52:41.945Z,4.80
2019-02-18T07:55:11.934Z,4.90
2019-02-18T07:57:41.586Z,5.00
2019-02-18T08:00:12.689Z,5.20
2019-02-18T08:02:42.729Z,5.30
2019-02-18T08:05:12.422Z,5.40
2019-02-18T08:07:42.054Z,5.50
2019-02-18T08:10:12.578Z,5.60
2019-02-18T08:12:42.325Z,5.80
2019-02-18T08:15:11.949Z,6.00
2019-02-18T08:17:41.565Z,6.10
2019-02-18T08:20:11.482Z,6.20
2019-02-18T08:22:41.117Z,6.30
2019-02-18T08:25:10.845Z,6.50
2019-02-18T08:27:40.480Z,6.70
2019-02-18T08:30:11.590Z,6.80
2019-02-18T08:32:41.286Z,7.00
2019-02-18T08:35:11.054Z,7.10
2019-02-18T08:37:40.674Z,7.30
2019-02-18T08:40:10.473Z,7.40
2019-02-18T08:42:40.110Z,7.40
2019-02-18T08:45:11.001Z,7.50
2019-02-18T08:47:40.999Z,7.50
2019-02-18T08:50:11.350Z,7.60
2019-02-18T08:52:41.978Z,7.70
2019-02-18T08:55:12.481Z,7.90
2019-02-18T08:57:42.199Z,8.00
2019-02-18T09:00:14.369Z,8.10
2019-02-18T09:02:44.545Z,8.20
2019-02-18T09:05:14.540Z,8.40
2019-02-18T09:07:44.319Z,8.50
2019-02-18T09:10:14.171Z,8.60
2019-02-18T09:12:43.840Z,8.70
2019-02-18T09:15:14.410Z,8.90
2019-02-18T09:17:44.252Z,9.00
2019-02-18T09:20:14.096Z,9.10
2019-02-18T09:23:02.802Z,9.20
2019-02-18T09:25:53.286Z,9.40
2019-02-18T09:28:23.202Z,9.50
2019-02-18T09:30:55.525Z,9.60
2019-02-18T09:33:25.150Z,9.70
2019-02-18T09:35:54.845Z,9.80
2019-02-18T09:38:25.612Z,10.00
2019-02-18T09:40:56.581Z,10.10
2019-02-18T09:43:26.218Z,10.10
2019-02-18T09:45:56.279Z,10.10
2019-02-18T09:48:25.891Z,10.20
2019-02-18T09:50:55.540Z,10.30
2019-02-18T09:53:25.157Z,10.40
2019-02-18T09:55:54.782Z,10.60
2019-02-18T09:58:24.472Z,10.70
2019-02-18T10:00:54.180Z,10.80
2019-02-18T10:03:31.550Z,11.00
2019-02-18T10:05:56.797Z,11.00
2019-02-18T10:08:26.682Z,11.00
2019-02-18T10:10:56.518Z,11.10
2019-02-18T10:13:26.243Z,11.10
2019-02-18T10:15:55.974Z,11.30
2019-02-18T10:18:25.706Z,11.30
2019-02-18T10:20:55.629Z,11.30
2019-02-18T10:23:25.334Z,11.40
2019-02-18T10:25:55.052Z,11.40
2019-02-18T10:28:24.665Z,11.40
2019-02-18T10:30:54.360Z,11.50
2019-02-18T10:33:24.078Z,11.60
2019-02-18T10:35:53.910Z,11.60
2019-02-18T10:38:23.542Z,11.60
2019-02-18T10:40:54.129Z,11.70
2019-02-18T10:43:32.252Z,11.90
2019-02-18T10:45:55.421Z,12.00
2019-02-18T10:48:25.738Z,12.10
2019-02-18T10:50:55.394Z,12.10
2019-02-18T10:53:25.247Z,12.20
2019-02-18T10:55:55.262Z,12.30
2019-02-18T10:58:25.437Z,12.40
2019-02-18T11:00:55.594Z,12.40
2019-02-18T11:03:25.373Z,12.50
2019-02-18T11:05:55.096Z,12.60
2019-02-18T11:08:24.848Z,12.60
2019-02-18T11:10:54.580Z,12.70
2019-02-18T11:13:24.311Z,12.80
2019-02-18T11:15:54.013Z,12.80
2019-02-18T11:18:23.633Z,12.80
2019-02-18T11:20:54.216Z,12.80
2019-02-18T11:23:23.834Z,12.90
2019-02-18T11:25:53.982Z,13.00
2019-02-18T11:28:23.612Z,13.10
2019-02-18T11:30:54.003Z,13.20
2019-02-18T11:33:23.634Z,13.20
2019-02-18T11:35:54.446Z,13.30
2019-02-18T11:38:24.076Z,13.40
2019-02-18T11:40:53.912Z,13.40
2019-02-18T11:43:23.539Z,13.50
2019-02-18T11:45:53.918Z,13.50
2019-02-18T11:48:23.567Z,13.50
2019-02-18T11:50:54.049Z,13.50
2019-02-18T11:53:23.687Z,13.60
2019-02-18T11:55:53.897Z,13.60
2019-02-18T11:58:23.530Z,13.70
2019-02-18T12:00:54.302Z,13.70
2019-02-18T12:03:23.930Z,13.60
2019-02-18T12:05:53.975Z,13.60
2019-02-18T12:08:23.673Z,13.60
2019-02-18T12:10:53.897Z,13.70
2019-02-18T12:13:23.607Z,13.80
2019-02-18T12:15:54.332Z,13.80
2019-02-18T12:18:24.256Z,14.00
2019-02-18T12:20:54.227Z,14.00
2019-02-18T12:23:23.862Z,14.00
2019-02-18T12:25:53.922Z,14.00
2019-02-18T12:28:23.777Z,14.10
2019-02-18T12:30:53.901Z,14.10
2019-02-18T12:33:23.554Z,14.10
2019-02-18T12:35:53.924Z,14.10
2019-02-18T12:38:23.552Z,14.10
2019-02-18T12:40:54.242Z,14.10
2019-02-18T12:43:24.186Z,14.10
2019-02-18T12:45:54.061Z,14.10
2019-02-18T12:48:24.044Z,14.20
2019-02-18T12:50:54.474Z,14.20
2019-02-18T12:53:25.068Z,14.30
2019-02-18T12:55:54.822Z,14.20
2019-02-18T12:58:24.529Z,14.20
2019-02-18T13:00:54.171Z,14.20
2019-02-18T13:03:24.392Z,14.20
2019-02-18T13:05:54.437Z,14.20
2019-02-18T13:08:25.146Z,14.20
2019-02-18T13:10:55.041Z,14.20
2019-02-18T13:13:24.770Z,14.30
2019-02-18T13:15:54.594Z,14.20
2019-02-18T13:18:24.683Z,14.20
2019-02-18T13:20:54.838Z,14.20
2019-02-18T13:23:25.865Z,14.30
2019-02-18T13:25:55.569Z,14.30
2019-02-18T13:28:25.507Z,14.30
2019-02-18T13:30:55.158Z,14.30
2019-02-18T13:33:24.849Z,14.30
2019-02-18T13:35:54.820Z,14.40
2019-02-18T13:38:24.520Z,14.40
2019-02-18T13:40:55.041Z,14.50
2019-02-18T13:43:24.727Z,14.50
2019-02-18T13:45:54.773Z,14.50
2019-02-18T13:48:24.407Z,14.50
2019-02-18T13:50:54.752Z,14.60
2019-02-18T13:53:24.360Z,14.60
2019-02-18T13:55:55.008Z,14.60
2019-02-18T13:58:24.630Z,14.60
2019-02-18T14:00:54.797Z,14.50
2019-02-18T14:03:24.805Z,14.50
2019-02-18T14:05:55.302Z,14.50
2019-02-18T14:08:25.004Z,14.50
2019-02-18T14:10:55.002Z,14.60
2019-02-18T14:13:24.714Z,14.60
2019-02-18T14:15:55.522Z,14.60
2019-02-18T14:18:25.379Z,14.60
2019-02-18T14:20:55.182Z,14.70
2019-02-18T14:23:24.850Z,14.70
2019-02-18T14:25:55.263Z,14.70
2019-02-18T14:28:25.118Z,14.70
2019-02-18T14:30:55.036Z,14.70
2019-02-18T14:33:24.644Z,14.80
2019-02-18T14:35:55.186Z,14.70
2019-02-18T14:38:25.077Z,14.70
2019-02-18T14:40:55.559Z,14.80
2019-02-18T14:43:25.399Z,14.80
2019-02-18T14:45:55.604Z,14.80
2019-02-18T14:48:25.233Z,14.80
2019-02-18T14:50:56.932Z,14.80
2019-02-18T14:53:26.879Z,14.80
2019-02-18T14:55:56.950Z,14.80
2019-02-18T14:58:26.658Z,14.80
2019-02-18T15:00:56.413Z,14.80
2019-02-18T15:03:26.310Z,14.80
2019-02-18T15:05:55.955Z,14.70
2019-02-18T15:08:25.659Z,14.80
2019-02-18T15:10:55.421Z,14.70
2019-02-18T15:13:25.973Z,14.70
2019-02-18T15:15:56.231Z,14.70
2019-02-18T15:18:26.117Z,14.70
2019-02-18T15:20:55.882Z,14.70
2019-02-18T15:23:25.929Z,14.70
2019-02-18T15:25:55.656Z,14.60
2019-02-18T15:28:25.905Z,14.60
2019-02-18T15:30:55.805Z,14.60
2019-02-18T15:33:25.520Z,14.50
2019-02-18T15:35:55.931Z,14.50
2019-02-18T15:38:25.966Z,14.40
2019-02-18T15:40:55.794Z,14.30
2019-02-18T15:43:25.493Z,14.20
2019-02-18T15:45:55.756Z,14.10
2019-02-18T15:48:25.740Z,14.00
2019-02-18T15:50:55.915Z,13.90
2019-02-18T15:53:25.544Z,13.90
2019-02-18T15:55:56.790Z,13.80
2019-02-18T15:58:26.428Z,13.60
2019-02-18T16:00:56.111Z,14.00
2019-02-18T16:03:26.129Z,13.90
2019-02-18T16:05:56.041Z,13.70
2019-02-18T16:08:25.761Z,13.60
2019-02-18T16:10:56.229Z,13.40
2019-02-18T16:13:26.134Z,13.20
2019-02-18T16:15:56.744Z,13.10
2019-02-18T16:18:26.441Z,12.90
2019-02-18T16:20:56.124Z,12.90
2019-02-18T16:23:25.857Z,12.70
2019-02-18T16:25:56.217Z,12.60
2019-02-18T16:28:26.085Z,12.50
2019-02-18T16:30:56.327Z,12.40
2019-02-18T16:33:25.958Z,12.30
2019-02-18T16:35:56.264Z,12.20
2019-02-18T16:38:25.949Z,12.10
2019-02-18T16:40:56.302Z,12.00
2019-02-18T16:43:26.534Z,11.90
2019-02-18T16:45:56.341Z,11.80
2019-02-18T16:48:26.566Z,11.70
2019-02-18T16:50:56.891Z,11.70
2019-02-18T16:53:26.606Z,11.60
2019-02-18T16:55:56.388Z,11.40
2019-02-18T16:58:26.082Z,11.40
2019-02-18T17:00:57.800Z,11.30
2019-02-18T17:03:27.682Z,11.10
2019-02-18T17:05:57.724Z,11.10
2019-02-18T17:08:27.345Z,11.00
2019-02-18T17:10:57.242Z,10.80
2019-02-18T17:13:27.168Z,10.80
2019-02-18T17:15:56.800Z,10.70
2019-02-18T17:18:26.797Z,10.50
2019-02-18T17:20:56.825Z,10.40
2019-02-18T17:23:26.877Z,10.40
2019-02-18T17:25:56.601Z,10.30
2019-02-18T17:28:26.609Z,10.20
2019-02-18T17:30:56.361Z,10.20
2019-02-18T17:33:25.992Z,10.10
2019-02-18T17:35:56.501Z,10.00
2019-02-18T17:38:26.134Z,9.90
2019-02-18T17:40:57.171Z,9.80
2019-02-18T17:43:27.182Z,9.70
2019-02-18T17:45:56.824Z,9.80
2019-02-18T17:48:27.197Z,9.70
2019-02-18T17:50:57.249Z,9.60
2019-02-18T17:53:27.162Z,9.40
2019-02-18T17:55:56.832Z,9.30
2019-02-18T17:58:26.469Z,9.20
2019-02-18T18:00:57.317Z,9.20
2019-02-18T18:03:27.438Z,9.10
2019-02-18T18:05:57.052Z,9.00
2019-02-18T18:08:26.973Z,8.90
2019-02-18T18:10:56.590Z,8.90
2019-02-18T18:13:26.240Z,8.80
2019-02-18T18:15:56.509Z,8.70
2019-02-18T18:18:26.211Z,8.70
2019-02-18T18:20:56.552Z,8.60
2019-02-18T18:23:26.757Z,8.60
2019-02-18T18:25:56.582Z,8.70
2019-02-18T18:28:26.490Z,8.70
2019-02-18T18:30:57.537Z,8.70
2019-02-18T18:33:27.173Z,8.70
2019-02-18T18:35:56.965Z,8.70
2019-02-18T18:38:26.664Z,8.60
2019-02-18T18:40:56.690Z,8.60
2019-02-18T18:43:33.687Z,8.40
2019-02-18T18:45:57.848Z,8.40
2019-02-18T18:48:27.458Z,8.40
2019-02-18T18:50:57.324Z,8.30
2019-02-18T18:53:27.141Z,8.20
2019-02-18T18:55:56.773Z,8.20
2019-02-18T18:58:26.809Z,8.20
2019-02-18T19:00:56.653Z,8.20
2019-02-18T19:03:26.286Z,8.30
2019-02-18T19:05:56.498Z,8.30
2019-02-18T19:08:26.209Z,8.30
2019-02-18T19:10:56.558Z,8.30
2019-02-18T19:13:26.178Z,8.30
2019-02-18T19:15:56.442Z,8.30
2019-02-18T19:18:26.062Z,8.30
2019-02-18T19:20:56.489Z,8.30
2019-02-18T19:23:26.095Z,8.20
2019-02-18T19:25:56.717Z,8.30
2019-02-18T19:28:26.333Z,8.20
2019-02-18T19:30:56.443Z,8.20
2019-02-18T19:33:26.438Z,8.20
2019-02-18T19:35:56.755Z,8.30
2019-02-18T19:38:26.384Z,8.30
2019-02-18T19:40:56.508Z,8.30
2019-02-18T19:43:26.141Z,8.30
2019-02-18T19:45:56.441Z,8.30
2019-02-18T19:48:26.056Z,8.30
2019-02-18T19:50:56.433Z,8.30
2019-02-18T19:53:26.328Z,8.30
2019-02-18T19:55:56.920Z,8.30
2019-02-18T19:58:26.824Z,8.30
2019-02-18T20:00:56.710Z,8.30
2019-02-18T20:03:26.390Z,8.30
2019-02-18T20:05:56.505Z,8.40
2019-02-18T20:08:26.125Z,8.40
2019-02-18T20:10:56.606Z,8.40
2019-02-18T20:13:26.216Z,8.30
2019-02-18T20:15:56.578Z,8.30
2019-02-18T20:18:26.528Z,8.30
2019-02-18T20:20:56.524Z,8.30
2019-02-18T20:23:26.415Z,8.20
2019-02-18T20:25:56.660Z,8.20
2019-02-18T20:28:26.280Z,8.30
2019-02-18T20:30:57.059Z,8.20
2019-02-18T20:33:26.686Z,8.20
2019-02-18T20:35:56.744Z,8.20
2019-02-18T20:38:26.398Z,8.20
2019-02-18T20:40:56.477Z,8.10
2019-02-18T20:43:26.444Z,8.10
2019-02-18T20:45:56.489Z,8.10
2019-02-18T20:48:27.570Z,8.10
2019-02-18T20:51:16.417Z,8.10
2019-02-18T20:53:46.179Z,8.10
2019-02-18T20:56:15.836Z,8.10
2019-02-18T20:58:45.741Z,8.00
2019-02-18T21:01:15.421Z,8.00
2019-02-18T21:03:45.040Z,7.90
2019-02-18T21:06:14.732Z,7.90
2019-02-18T21:08:44.429Z,7.90
2019-02-18T21:11:14.049Z,7.80
2019-02-18T21:13:44.925Z,7.80
2019-02-18T21:16:14.537Z,7.70
2019-02-18T21:18:44.442Z,7.70
2019-02-18T21:21:14.063Z,7.70
2019-02-18T21:23:43.676Z,7.70
2019-02-18T21:26:13.674Z,7.60
2019-02-18T21:28:43.302Z,7.50
2019-02-18T21:31:13.165Z,7.50
2019-02-18T21:33:43.029Z,7.40
2019-02-18T21:36:12.654Z,7.40
2019-02-18T21:38:42.297Z,7.40
2019-02-18T21:41:12.438Z,7.40
2019-02-18T21:43:42.070Z,7.40
2019-02-18T21:46:11.689Z,7.30
2019-02-18T21:48:41.379Z,7.30
2019-02-18T21:51:11.006Z,7.30
2019-02-18T21:53:42.274Z,7.20
2019-02-18T21:56:12.189Z,7.20
2019-02-18T21:58:41.854Z,7.10
2019-02-18T22:01:11.468Z,7.20
2019-02-18T22:03:41.422Z,7.10
2019-02-18T22:06:11.053Z,7.10
2019-02-18T22:08:40.794Z,7.10
2019-02-18T22:11:10.427Z,7.00
2019-02-18T22:13:40.050Z,7.00
2019-02-18T22:16:10.016Z,7.00
2019-02-18T22:18:39.974Z,6.90
2019-02-18T22:21:09.628Z,6.90
2019-02-18T22:23:39.496Z,6.90
2019-02-18T22:26:09.440Z,7.00
2019-02-18T22:28:39.338Z,6.90
2019-02-18T22:31:08.961Z,7.00
2019-02-18T22:33:38.582Z,7.00
2019-02-18T22:36:08.218Z,7.10
2019-02-18T22:38:37.868Z,7.00
2019-02-18T22:41:07.662Z,7.10
2019-02-18T22:43:37.398Z,7.10
2019-02-18T22:46:07.024Z,7.10
2019-02-18T22:48:37.702Z,7.20
2019-02-18T22:51:07.746Z,7.20
2019-02-18T22:53:37.948Z,7.20
2019-02-18T22:56:07.572Z,7.20
2019-02-18T22:58:37.277Z,7.30
2019-02-18T23:01:08.787Z,7.20
2019-02-18T23:03:38.770Z,7.20
2019-02-18T23:06:08.754Z,7.20
2019-02-18T23:08:38.462Z,7.20
2019-02-18T23:11:09.151Z,7.20
2019-02-18T23:13:39.005Z,7.10
2019-02-18T23:16:08.637Z,7.10
2019-02-18T23:18:39.116Z,7.10
2019-02-18T23:21:08.851Z,7.10
2019-02-18T23:23:38.541Z,7.10
2019-02-18T23:26:08.478Z,7.10
2019-02-18T23:28:38.357Z,7.00
2019-02-18T23:31:08.256Z,7.00
2019-02-18T23:33:37.922Z,7.00
2019-02-18T23:36:07.557Z,7.00
2019-02-18T23:38:37.489Z,7.00
2019-02-18T23:41:07.412Z,7.00
2019-02-18T23:43:37.040Z,7.00
2019-02-18T23:46:06.656Z,7.10
2019-02-18T23:48:37.305Z,7.10
2019-02-18T23:51:07.185Z,7.20
2019-02-18T23:53:36.813Z,7.20
2019-02-18T23:56:06.456Z,7.20
2019-02-18T23:58:36.081Z,7.10
